sensor_id;sensor_type;location;lat;lon;timestamp;temperature;humidity
38582;DHT22;24349;53.720;10.014;2023-11-22T00:01:52;2.00;99.90
38582;DHT22;24349;53.720;10.014;2023-11-22T00:04:19;2.00;99.90
38582;DHT22;24349;53.720;10.014;2023-11-22T00:06:45;2.00;99.90
38582;DHT22;24349;53.720;10.014;2023-11-22T00:09:11;2.00;99.90
38582;DHT22;24349;53.720;10.014;2023-11-22T00:11:37;1.90;99.90
38582;DHT22;24349;53.720;10.014;2023-11-22T00:14:02;1.90;99.90
38582;DHT22;24349;53.720;10.014;2023-11-22T00:16:28;1.90;99.90
38582;DHT22;24349;53.720;10.014;2023-11-22T00:18:55;1.90;99.90
38582;DHT22;24349;53.720;10.014;2023-11-22T00:21:21;1.70;99.90
38582;DHT22;24349;53.720;10.014;2023-11-22T00:23:46;1.70;99.90
38582;DHT22;24349;53.720;10.014;2023-11-22T00:26:12;1.60;99.90
38582;DHT22;24349;53.720;10.014;2023-11-22T00:28:38;1.60;99.90
38582;DHT22;24349;53.720;10.014;2023-11-22T00:31:03;1.60;99.90
38582;DHT22;24349;53.720;10.014;2023-11-22T00:33:29;1.60;99.90
38582;DHT22;24349;53.720;10.014;2023-11-22T00:35:57;1.60;99.90
38582;DHT22;24349;53.720;10.014;2023-11-22T00:38:24;1.50;99.90
38582;DHT22;24349;53.720;10.014;2023-11-22T00:40:49;1.50;99.90
38582;DHT22;24349;53.720;10.014;2023-11-22T00:43:15;1.50;99.90
38582;DHT22;24349;53.720;10.014;2023-11-22T00:45:41;1.40;99.90
38582;DHT22;24349;53.720;10.014;2023-11-22T00:48:07;1.40;99.90
38582;DHT22;24349;53.720;10.014;2023-11-22T00:50:32;1.40;99.90
38582;DHT22;24349;53.720;10.014;2023-11-22T00:52:58;1.40;99.90
38582;DHT22;24349;53.720;10.014;2023-11-22T00:55:24;1.40;99.90
38582;DHT22;24349;53.720;10.014;2023-11-22T00:57:49;1.40;99.90
38582;DHT22;24349;53.720;10.014;2023-11-22T01:00:15;1.40;99.90
38582;DHT22;24349;53.720;10.014;2023-11-22T01:02:41;1.30;99.90
38582;DHT22;24349;53.720;10.014;2023-11-22T01:05:07;1.30;99.90
38582;DHT22;24349;53.720;10.014;2023-11-22T01:07:37;1.30;99.90
38582;DHT22;24349;53.720;10.014;2023-11-22T01:10:03;1.30;99.90
38582;DHT22;24349;53.720;10.014;2023-11-22T01:12:29;1.20;99.90
38582;DHT22;24349;53.720;10.014;2023-11-22T01:14:55;1.20;99.90
38582;DHT22;24349;53.720;10.014;2023-11-22T01:17:20;1.10;99.90
38582;DHT22;24349;53.720;10.014;2023-11-22T01:19:46;1.10;99.90
38582;DHT22;24349;53.720;10.014;2023-11-22T01:22:12;1.10;99.90
38582;DHT22;24349;53.720;10.014;2023-11-22T01:24:37;1.00;99.90
38582;DHT22;24349;53.720;10.014;2023-11-22T01:27:03;1.00;99.90
38582;DHT22;24349;53.720;10.014;2023-11-22T01:29:30;1.00;99.90
38582;DHT22;24349;53.720;10.014;2023-11-22T01:31:56;0.90;99.90
38582;DHT22;24349;53.720;10.014;2023-11-22T01:34:21;0.90;99.90
38582;DHT22;24349;53.720;10.014;2023-11-22T01:36:50;0.90;99.90
38582;DHT22;24349;53.720;10.014;2023-11-22T01:39:15;0.80;99.90
38582;DHT22;24349;53.720;10.014;2023-11-22T01:41:44;0.90;99.90
38582;DHT22;24349;53.720;10.014;2023-11-22T01:44:10;0.70;99.90
38582;DHT22;24349;53.720;10.014;2023-11-22T01:46:35;0.70;99.90
38582;DHT22;24349;53.720;10.014;2023-11-22T01:49:01;0.70;99.90
38582;DHT22;24349;53.720;10.014;2023-11-22T01:51:27;0.70;99.90
38582;DHT22;24349;53.720;10.014;2023-11-22T01:53:55;0.70;99.90
38582;DHT22;24349;53.720;10.014;2023-11-22T01:56:23;0.70;99.90
38582;DHT22;24349;53.720;10.014;2023-11-22T01:58:50;0.70;99.90
38582;DHT22;24349;53.720;10.014;2023-11-22T02:01:17;0.70;99.90
38582;DHT22;24349;53.720;10.014;2023-11-22T02:03:45;0.80;99.90
38582;DHT22;24349;53.720;10.014;2023-11-22T02:06:11;0.80;99.90
38582;DHT22;24349;53.720;10.014;2023-11-22T02:08:36;0.80;99.90
38582;DHT22;24349;53.720;10.014;2023-11-22T02:11:02;0.80;99.90
38582;DHT22;24349;53.720;10.014;2023-11-22T02:13:32;0.80;99.90
38582;DHT22;24349;53.720;10.014;2023-11-22T02:15:58;0.80;99.90
38582;DHT22;24349;53.720;10.014;2023-11-22T02:18:26;0.70;99.90
38582;DHT22;24349;53.720;10.014;2023-11-22T02:20:52;0.60;99.90
38582;DHT22;24349;53.720;10.014;2023-11-22T02:23:18;0.60;99.90
38582;DHT22;24349;53.720;10.014;2023-11-22T02:25:44;0.60;99.90
38582;DHT22;24349;53.720;10.014;2023-11-22T02:28:11;0.60;99.90
38582;DHT22;24349;53.720;10.014;2023-11-22T02:30:37;0.60;99.90
38582;DHT22;24349;53.720;10.014;2023-11-22T02:33:03;0.50;99.90
38582;DHT22;24349;53.720;10.014;2023-11-22T02:35:30;0.50;99.90
38582;DHT22;24349;53.720;10.014;2023-11-22T02:37:57;0.50;99.90
38582;DHT22;24349;53.720;10.014;2023-11-22T02:40:23;0.50;99.90
38582;DHT22;24349;53.720;10.014;2023-11-22T02:42:51;0.60;99.90
38582;DHT22;24349;53.720;10.014;2023-11-22T02:45:17;0.60;99.90
38582;DHT22;24349;53.720;10.014;2023-11-22T02:47:44;0.60;99.90
38582;DHT22;24349;53.720;10.014;2023-11-22T02:50:10;0.60;99.90
38582;DHT22;24349;53.720;10.014;2023-11-22T02:52:37;0.50;99.90
38582;DHT22;24349;53.720;10.014;2023-11-22T02:55:03;0.30;99.90
38582;DHT22;24349;53.720;10.014;2023-11-22T02:57:30;0.30;99.90
38582;DHT22;24349;53.720;10.014;2023-11-22T02:59:57;0.40;99.90
38582;DHT22;24349;53.720;10.014;2023-11-22T03:02:22;0.30;99.90
38582;DHT22;24349;53.720;10.014;2023-11-22T03:04:49;0.30;99.90
38582;DHT22;24349;53.720;10.014;2023-11-22T03:07:15;0.20;99.90
38582;DHT22;24349;53.720;10.014;2023-11-22T03:09:40;0.10;99.90
38582;DHT22;24349;53.720;10.014;2023-11-22T03:12:08;0.10;99.90
38582;DHT22;24349;53.720;10.014;2023-11-22T03:14:35;0.20;99.90
38582;DHT22;24349;53.720;10.014;2023-11-22T03:17:01;0.30;99.90
38582;DHT22;24349;53.720;10.014;2023-11-22T03:19:26;0.30;99.90
38582;DHT22;24349;53.720;10.014;2023-11-22T03:21:52;0.40;99.90
38582;DHT22;24349;53.720;10.014;2023-11-22T03:24:18;0.40;99.90
38582;DHT22;24349;53.720;10.014;2023-11-22T03:26:43;0.40;99.90
38582;DHT22;24349;53.720;10.014;2023-11-22T03:29:10;0.40;99.90
38582;DHT22;24349;53.720;10.014;2023-11-22T03:31:36;0.40;99.90
38582;DHT22;24349;53.720;10.014;2023-11-22T03:34:01;0.50;99.90
38582;DHT22;24349;53.720;10.014;2023-11-22T03:36:27;0.50;99.90
38582;DHT22;24349;53.720;10.014;2023-11-22T03:38:52;0.50;99.90
38582;DHT22;24349;53.720;10.014;2023-11-22T03:41:18;0.50;99.90
38582;DHT22;24349;53.720;10.014;2023-11-22T03:43:44;0.40;99.90
38582;DHT22;24349;53.720;10.014;2023-11-22T03:46:10;0.40;99.90
38582;DHT22;24349;53.720;10.014;2023-11-22T03:48:36;0.40;99.90
38582;DHT22;24349;53.720;10.014;2023-11-22T03:51:02;0.40;99.90
38582;DHT22;24349;53.720;10.014;2023-11-22T03:53:28;0.40;99.90
38582;DHT22;24349;53.720;10.014;2023-11-22T03:55:54;0.40;99.90
38582;DHT22;24349;53.720;10.014;2023-11-22T03:58:19;0.40;99.90
38582;DHT22;24349;53.720;10.014;2023-11-22T04:00:45;0.40;99.90
38582;DHT22;24349;53.720;10.014;2023-11-22T04:03:11;0.40;99.90
38582;DHT22;24349;53.720;10.014;2023-11-22T04:05:36;0.40;99.90
38582;DHT22;24349;53.720;10.014;2023-11-22T04:08:02;0.40;99.90
38582;DHT22;24349;53.720;10.014;2023-11-22T04:10:27;0.30;99.90
38582;DHT22;24349;53.720;10.014;2023-11-22T04:12:53;0.30;99.90
38582;DHT22;24349;53.720;10.014;2023-11-22T04:15:19;0.30;99.90
38582;DHT22;24349;53.720;10.014;2023-11-22T04:17:44;0.30;99.90
38582;DHT22;24349;53.720;10.014;2023-11-22T04:20:10;0.30;99.90
38582;DHT22;24349;53.720;10.014;2023-11-22T04:22:39;0.20;99.90
38582;DHT22;24349;53.720;10.014;2023-11-22T04:25:06;0.20;99.90
38582;DHT22;24349;53.720;10.014;2023-11-22T04:27:33;0.10;99.90
38582;DHT22;24349;53.720;10.014;2023-11-22T04:29:58;0.10;99.90
38582;DHT22;24349;53.720;10.014;2023-11-22T04:32:24;0.00;99.90
38582;DHT22;24349;53.720;10.014;2023-11-22T04:34:49;-0.10;99.90
38582;DHT22;24349;53.720;10.014;2023-11-22T04:37:15;0.00;99.90
38582;DHT22;24349;53.720;10.014;2023-11-22T04:39:41;0.00;99.90
38582;DHT22;24349;53.720;10.014;2023-11-22T04:42:06;0.00;99.90
38582;DHT22;24349;53.720;10.014;2023-11-22T04:44:32;0.00;99.90
38582;DHT22;24349;53.720;10.014;2023-11-22T04:46:58;0.00;99.90
38582;DHT22;24349;53.720;10.014;2023-11-22T04:49:25;0.00;99.90
38582;DHT22;24349;53.720;10.014;2023-11-22T04:51:50;-0.10;99.90
38582;DHT22;24349;53.720;10.014;2023-11-22T04:54:16;-0.10;99.90
38582;DHT22;24349;53.720;10.014;2023-11-22T04:56:42;-0.10;99.90
38582;DHT22;24349;53.720;10.014;2023-11-22T04:59:08;-0.10;99.90
38582;DHT22;24349;53.720;10.014;2023-11-22T05:01:34;-0.10;99.90
38582;DHT22;24349;53.720;10.014;2023-11-22T05:03:59;-0.10;99.90
38582;DHT22;24349;53.720;10.014;2023-11-22T05:06:25;-0.10;99.90
38582;DHT22;24349;53.720;10.014;2023-11-22T05:08:52;-0.10;99.90
38582;DHT22;24349;53.720;10.014;2023-11-22T05:11:18;-0.10;99.90
38582;DHT22;24349;53.720;10.014;2023-11-22T05:13:44;-0.10;99.90
38582;DHT22;24349;53.720;10.014;2023-11-22T05:16:10;-0.10;99.90
38582;DHT22;24349;53.720;10.014;2023-11-22T05:18:36;-0.10;99.90
38582;DHT22;24349;53.720;10.014;2023-11-22T05:21:02;-0.20;99.90
38582;DHT22;24349;53.720;10.014;2023-11-22T05:23:29;-0.20;99.90
38582;DHT22;24349;53.720;10.014;2023-11-22T05:25:55;-0.20;99.90
38582;DHT22;24349;53.720;10.014;2023-11-22T05:28:22;-0.20;99.90
38582;DHT22;24349;53.720;10.014;2023-11-22T05:30:48;-0.20;99.90
38582;DHT22;24349;53.720;10.014;2023-11-22T05:33:13;-0.20;99.90
38582;DHT22;24349;53.720;10.014;2023-11-22T05:35:39;-0.20;99.90
38582;DHT22;24349;53.720;10.014;2023-11-22T05:38:07;-0.20;99.90
38582;DHT22;24349;53.720;10.014;2023-11-22T05:40:33;-0.20;99.90
38582;DHT22;24349;53.720;10.014;2023-11-22T05:42:58;-0.20;99.90
38582;DHT22;24349;53.720;10.014;2023-11-22T05:45:24;-0.10;99.90
38582;DHT22;24349;53.720;10.014;2023-11-22T05:47:51;-0.10;99.90
38582;DHT22;24349;53.720;10.014;2023-11-22T05:50:16;-0.10;99.90
38582;DHT22;24349;53.720;10.014;2023-11-22T05:52:43;-0.10;99.90
38582;DHT22;24349;53.720;10.014;2023-11-22T05:55:10;-0.20;99.90
38582;DHT22;24349;53.720;10.014;2023-11-22T05:57:35;-0.20;99.90
38582;DHT22;24349;53.720;10.014;2023-11-22T06:00:01;-0.20;99.90
38582;DHT22;24349;53.720;10.014;2023-11-22T06:02:27;-0.30;99.90
38582;DHT22;24349;53.720;10.014;2023-11-22T06:04:53;-0.30;99.90
38582;DHT22;24349;53.720;10.014;2023-11-22T06:07:18;-0.20;99.90
38582;DHT22;24349;53.720;10.014;2023-11-22T06:09:44;-0.40;99.90
38582;DHT22;24349;53.720;10.014;2023-11-22T06:12:10;-0.40;99.90
38582;DHT22;24349;53.720;10.014;2023-11-22T06:14:35;-0.40;99.90
38582;DHT22;24349;53.720;10.014;2023-11-22T06:17:01;-0.30;99.90
38582;DHT22;24349;53.720;10.014;2023-11-22T06:19:28;-0.30;99.90
38582;DHT22;24349;53.720;10.014;2023-11-22T06:21:54;-0.30;99.90
38582;DHT22;24349;53.720;10.014;2023-11-22T06:24:19;-0.30;99.90
38582;DHT22;24349;53.720;10.014;2023-11-22T06:26:45;-0.20;99.90
38582;DHT22;24349;53.720;10.014;2023-11-22T06:29:15;-0.20;99.90
38582;DHT22;24349;53.720;10.014;2023-11-22T06:31:41;-0.20;99.90
38582;DHT22;24349;53.720;10.014;2023-11-22T06:34:07;-0.30;99.90
38582;DHT22;24349;53.720;10.014;2023-11-22T06:36:33;-0.20;99.90
38582;DHT22;24349;53.720;10.014;2023-11-22T06:38:59;-0.30;99.90
38582;DHT22;24349;53.720;10.014;2023-11-22T06:41:25;-0.30;99.90
38582;DHT22;24349;53.720;10.014;2023-11-22T06:43:51;-0.20;99.90
38582;DHT22;24349;53.720;10.014;2023-11-22T06:46:16;-0.20;99.90
38582;DHT22;24349;53.720;10.014;2023-11-22T06:48:42;-0.20;99.90
38582;DHT22;24349;53.720;10.014;2023-11-22T06:51:11;-0.10;99.90
38582;DHT22;24349;53.720;10.014;2023-11-22T06:53:37;0.00;99.90
38582;DHT22;24349;53.720;10.014;2023-11-22T06:56:02;0.20;99.90
38582;DHT22;24349;53.720;10.014;2023-11-22T06:58:29;0.30;99.90
38582;DHT22;24349;53.720;10.014;2023-11-22T07:00:55;0.40;99.90
38582;DHT22;24349;53.720;10.014;2023-11-22T07:03:20;0.50;99.90
38582;DHT22;24349;53.720;10.014;2023-11-22T07:05:46;0.60;99.90
38582;DHT22;24349;53.720;10.014;2023-11-22T07:08:12;0.60;99.90
38582;DHT22;24349;53.720;10.014;2023-11-22T07:10:38;0.60;99.90
38582;DHT22;24349;53.720;10.014;2023-11-22T07:13:03;0.50;99.90
38582;DHT22;24349;53.720;10.014;2023-11-22T07:15:29;0.60;99.90
38582;DHT22;24349;53.720;10.014;2023-11-22T07:17:55;0.70;99.90
38582;DHT22;24349;53.720;10.014;2023-11-22T07:20:21;0.90;99.90
38582;DHT22;24349;53.720;10.014;2023-11-22T07:22:47;1.00;99.90
38582;DHT22;24349;53.720;10.014;2023-11-22T07:25:20;1.10;99.90
38582;DHT22;24349;53.720;10.014;2023-11-22T07:27:50;1.20;99.90
38582;DHT22;24349;53.720;10.014;2023-11-22T07:30:16;1.20;99.90
38582;DHT22;24349;53.720;10.014;2023-11-22T07:32:44;1.30;99.90
38582;DHT22;24349;53.720;10.014;2023-11-22T07:35:10;1.20;99.90
38582;DHT22;24349;53.720;10.014;2023-11-22T07:37:37;1.00;99.90
38582;DHT22;24349;53.720;10.014;2023-11-22T07:40:08;1.00;99.90
38582;DHT22;24349;53.720;10.014;2023-11-22T07:42:35;1.10;99.90
38582;DHT22;24349;53.720;10.014;2023-11-22T07:45:01;1.20;99.90
38582;DHT22;24349;53.720;10.014;2023-11-22T07:47:27;1.20;99.90
38582;DHT22;24349;53.720;10.014;2023-11-22T07:49:53;1.30;99.90
38582;DHT22;24349;53.720;10.014;2023-11-22T07:52:23;1.40;99.90
38582;DHT22;24349;53.720;10.014;2023-11-22T07:54:56;1.40;99.90
38582;DHT22;24349;53.720;10.014;2023-11-22T07:57:22;1.50;99.90
38582;DHT22;24349;53.720;10.014;2023-11-22T07:59:48;1.50;99.90
38582;DHT22;24349;53.720;10.014;2023-11-22T08:02:14;1.50;99.90
38582;DHT22;24349;53.720;10.014;2023-11-22T08:04:44;1.60;99.90
38582;DHT22;24349;53.720;10.014;2023-11-22T08:07:10;1.60;99.90
38582;DHT22;24349;53.720;10.014;2023-11-22T08:09:41;1.60;99.90
38582;DHT22;24349;53.720;10.014;2023-11-22T08:12:07;1.50;99.90
38582;DHT22;24349;53.720;10.014;2023-11-22T08:14:33;1.40;99.90
38582;DHT22;24349;53.720;10.014;2023-11-22T08:16:59;1.40;99.90
38582;DHT22;24349;53.720;10.014;2023-11-22T08:19:24;1.50;99.90
38582;DHT22;24349;53.720;10.014;2023-11-22T08:21:50;1.60;99.90
38582;DHT22;24349;53.720;10.014;2023-11-22T08:24:16;1.60;99.90
38582;DHT22;24349;53.720;10.014;2023-11-22T08:26:42;1.70;99.90
38582;DHT22;24349;53.720;10.014;2023-11-22T08:29:07;1.70;99.90
38582;DHT22;24349;53.720;10.014;2023-11-22T08:31:33;1.80;99.90
38582;DHT22;24349;53.720;10.014;2023-11-22T08:34:02;1.80;99.90
38582;DHT22;24349;53.720;10.014;2023-11-22T08:36:29;1.80;99.90
38582;DHT22;24349;53.720;10.014;2023-11-22T08:38:56;2.00;99.90
38582;DHT22;24349;53.720;10.014;2023-11-22T08:41:25;2.00;99.90
38582;DHT22;24349;53.720;10.014;2023-11-22T08:43:52;2.10;99.90
38582;DHT22;24349;53.720;10.014;2023-11-22T08:46:18;2.10;99.90
38582;DHT22;24349;53.720;10.014;2023-11-22T08:48:43;2.30;99.90
38582;DHT22;24349;53.720;10.014;2023-11-22T08:51:09;2.20;99.90
38582;DHT22;24349;53.720;10.014;2023-11-22T08:53:35;2.20;99.90
38582;DHT22;24349;53.720;10.014;2023-11-22T08:56:01;2.20;99.90
38582;DHT22;24349;53.720;10.014;2023-11-22T08:58:30;2.30;99.90
38582;DHT22;24349;53.720;10.014;2023-11-22T09:00:56;2.30;99.90
38582;DHT22;24349;53.720;10.014;2023-11-22T09:03:23;2.40;99.90
38582;DHT22;24349;53.720;10.014;2023-11-22T09:05:49;2.40;99.90
38582;DHT22;24349;53.720;10.014;2023-11-22T09:08:15;2.40;99.90
38582;DHT22;24349;53.720;10.014;2023-11-22T09:10:44;2.30;99.90
38582;DHT22;24349;53.720;10.014;2023-11-22T09:13:10;2.40;99.90
38582;DHT22;24349;53.720;10.014;2023-11-22T09:15:36;2.40;99.90
38582;DHT22;24349;53.720;10.014;2023-11-22T09:18:04;2.40;99.90
38582;DHT22;24349;53.720;10.014;2023-11-22T09:20:30;2.30;99.90
38582;DHT22;24349;53.720;10.014;2023-11-22T09:22:55;2.40;99.90
38582;DHT22;24349;53.720;10.014;2023-11-22T09:25:25;2.50;99.90
38582;DHT22;24349;53.720;10.014;2023-11-22T09:27:54;2.60;99.90
38582;DHT22;24349;53.720;10.014;2023-11-22T09:33:14;2.80;99.90
38582;DHT22;24349;53.720;10.014;2023-11-22T09:35:41;2.90;99.90
38582;DHT22;24349;53.720;10.014;2023-11-22T09:38:09;3.00;99.90
38582;DHT22;24349;53.720;10.014;2023-11-22T09:40:41;3.10;99.90
38582;DHT22;24349;53.720;10.014;2023-11-22T09:43:07;3.00;99.90
38582;DHT22;24349;53.720;10.014;2023-11-22T09:45:32;3.20;99.90
38582;DHT22;24349;53.720;10.014;2023-11-22T09:47:59;3.30;99.90
38582;DHT22;24349;53.720;10.014;2023-11-22T09:53:25;3.40;99.90
38582;DHT22;24349;53.720;10.014;2023-11-22T09:55:52;3.50;99.90
38582;DHT22;24349;53.720;10.014;2023-11-22T09:58:20;3.60;99.90
38582;DHT22;24349;53.720;10.014;2023-11-22T10:00:46;3.60;99.90
38582;DHT22;24349;53.720;10.014;2023-11-22T10:03:13;3.60;99.90
38582;DHT22;24349;53.720;10.014;2023-11-22T10:05:43;3.60;99.90
38582;DHT22;24349;53.720;10.014;2023-11-22T10:08:08;3.70;99.90
38582;DHT22;24349;53.720;10.014;2023-11-22T10:10:36;3.80;99.90
38582;DHT22;24349;53.720;10.014;2023-11-22T10:13:02;3.80;99.90
38582;DHT22;24349;53.720;10.014;2023-11-22T10:15:29;3.80;99.90
38582;DHT22;24349;53.720;10.014;2023-11-22T10:17:55;3.80;99.90
38582;DHT22;24349;53.720;10.014;2023-11-22T10:20:41;3.80;99.90
38582;DHT22;24349;53.720;10.014;2023-11-22T10:23:11;3.80;99.90
38582;DHT22;24349;53.720;10.014;2023-11-22T10:25:49;3.80;99.90
38582;DHT22;24349;53.720;10.014;2023-11-22T10:28:22;3.90;99.90
38582;DHT22;24349;53.720;10.014;2023-11-22T10:30:50;3.90;98.90
38582;DHT22;24349;53.720;10.014;2023-11-22T10:33:17;4.00;99.90
38582;DHT22;24349;53.720;10.014;2023-11-22T10:35:47;4.10;99.90
38582;DHT22;24349;53.720;10.014;2023-11-22T10:38:20;4.10;99.90
38582;DHT22;24349;53.720;10.014;2023-11-22T10:40:46;4.30;99.90
38582;DHT22;24349;53.720;10.014;2023-11-22T10:43:14;4.30;99.90
38582;DHT22;24349;53.720;10.014;2023-11-22T10:45:41;4.10;69.40
38582;DHT22;24349;53.720;10.014;2023-11-22T10:48:11;4.20;99.90
38582;DHT22;24349;53.720;10.014;2023-11-22T10:50:37;4.30;95.10
38582;DHT22;24349;53.720;10.014;2023-11-22T10:53:06;4.30;97.90
38582;DHT22;24349;53.720;10.014;2023-11-22T10:55:33;4.40;99.50
38582;DHT22;24349;53.720;10.014;2023-11-22T10:58:02;4.40;94.50
38582;DHT22;24349;53.720;10.014;2023-11-22T11:00:31;4.30;99.00
38582;DHT22;24349;53.720;10.014;2023-11-22T11:03:08;4.30;99.50
38582;DHT22;24349;53.720;10.014;2023-11-22T11:05:39;4.40;99.90
38582;DHT22;24349;53.720;10.014;2023-11-22T11:08:12;4.40;99.90
38582;DHT22;24349;53.720;10.014;2023-11-22T11:10:41;4.60;99.90
38582;DHT22;24349;53.720;10.014;2023-11-22T11:13:07;4.80;97.20
38582;DHT22;24349;53.720;10.014;2023-11-22T11:15:41;4.70;35.20
38582;DHT22;24349;53.720;10.014;2023-11-22T11:18:10;4.80;60.60
38582;DHT22;24349;53.720;10.014;2023-11-22T11:20:55;4.80;1.00
38582;DHT22;24349;53.720;10.014;2023-11-22T11:23:23;5.00;2.30
38582;DHT22;24349;53.720;10.014;2023-11-22T11:25:56;5.20;1.00
38582;DHT22;24349;53.720;10.014;2023-11-22T11:28:25;5.20;1.00
38582;DHT22;24349;53.720;10.014;2023-11-22T11:30:52;5.30;99.90
38582;DHT22;24349;53.720;10.014;2023-11-22T11:33:33;5.30;99.90
38582;DHT22;24349;53.720;10.014;2023-11-22T11:36:01;5.50;99.90
38582;DHT22;24349;53.720;10.014;2023-11-22T11:38:34;5.50;1.00
38582;DHT22;24349;53.720;10.014;2023-11-22T11:41:08;5.40;99.90
38582;DHT22;24349;53.720;10.014;2023-11-22T11:43:46;5.30;1.00
38582;DHT22;24349;53.720;10.014;2023-11-22T11:46:14;5.20;99.90
38582;DHT22;24349;53.720;10.014;2023-11-22T11:48:58;5.50;1.00
38582;DHT22;24349;53.720;10.014;2023-11-22T11:51:25;5.70;99.90
38582;DHT22;24349;53.720;10.014;2023-11-22T11:53:51;5.80;16.20
38582;DHT22;24349;53.720;10.014;2023-11-22T11:56:17;5.80;1.00
38582;DHT22;24349;53.720;10.014;2023-11-22T11:58:44;5.60;99.90
38582;DHT22;24349;53.720;10.014;2023-11-22T12:01:14;5.50;99.90
38582;DHT22;24349;53.720;10.014;2023-11-22T12:03:42;5.50;99.90
38582;DHT22;24349;53.720;10.014;2023-11-22T12:06:09;5.30;99.90
38582;DHT22;24349;53.720;10.014;2023-11-22T12:08:34;5.20;10.20
38582;DHT22;24349;53.720;10.014;2023-11-22T12:11:02;5.10;85.80
38582;DHT22;24349;53.720;10.014;2023-11-22T12:13:30;5.10;99.90
38582;DHT22;24349;53.720;10.014;2023-11-22T12:15:55;5.10;99.90
38582;DHT22;24349;53.720;10.014;2023-11-22T12:18:22;5.10;99.90
38582;DHT22;24349;53.720;10.014;2023-11-22T12:20:58;5.10;99.90
38582;DHT22;24349;53.720;10.014;2023-11-22T12:23:25;5.10;99.90
38582;DHT22;24349;53.720;10.014;2023-11-22T12:25:58;5.10;9.60
38582;DHT22;24349;53.720;10.014;2023-11-22T12:28:26;5.00;1.00
38582;DHT22;24349;53.720;10.014;2023-11-22T12:30:52;4.90;1.00
38582;DHT22;24349;53.720;10.014;2023-11-22T12:33:18;4.90;1.00
38582;DHT22;24349;53.720;10.014;2023-11-22T12:35:45;4.90;1.00
38582;DHT22;24349;53.720;10.014;2023-11-22T12:38:11;4.80;1.00
38582;DHT22;24349;53.720;10.014;2023-11-22T12:40:37;4.80;1.00
38582;DHT22;24349;53.720;10.014;2023-11-22T12:43:03;4.70;1.00
38582;DHT22;24349;53.720;10.014;2023-11-22T12:45:30;4.70;1.00
38582;DHT22;24349;53.720;10.014;2023-11-22T12:47:57;4.80;1.00
38582;DHT22;24349;53.720;10.014;2023-11-22T12:52:56;4.70;1.00
38582;DHT22;24349;53.720;10.014;2023-11-22T12:55:22;4.60;1.00
38582;DHT22;24349;53.720;10.014;2023-11-22T12:58:00;4.60;1.00
38582;DHT22;24349;53.720;10.014;2023-11-22T13:00:29;4.60;1.00
38582;DHT22;24349;53.720;10.014;2023-11-22T13:02:58;4.60;1.00
38582;DHT22;24349;53.720;10.014;2023-11-22T13:05:23;4.60;1.00
38582;DHT22;24349;53.720;10.014;2023-11-22T13:07:49;4.60;1.00
38582;DHT22;24349;53.720;10.014;2023-11-22T13:10:15;4.60;1.00
38582;DHT22;24349;53.720;10.014;2023-11-22T13:12:42;4.50;1.00
38582;DHT22;24349;53.720;10.014;2023-11-22T13:15:09;4.50;1.00
38582;DHT22;24349;53.720;10.014;2023-11-22T13:17:37;4.50;1.00
38582;DHT22;24349;53.720;10.014;2023-11-22T13:20:03;4.40;1.00
38582;DHT22;24349;53.720;10.014;2023-11-22T13:22:31;4.40;1.00
38582;DHT22;24349;53.720;10.014;2023-11-22T13:24:56;4.40;1.00
38582;DHT22;24349;53.720;10.014;2023-11-22T13:27:24;4.40;1.00
38582;DHT22;24349;53.720;10.014;2023-11-22T13:29:51;4.30;1.00
38582;DHT22;24349;53.720;10.014;2023-11-22T13:32:18;4.30;1.00
38582;DHT22;24349;53.720;10.014;2023-11-22T13:34:43;4.30;1.00
38582;DHT22;24349;53.720;10.014;2023-11-22T13:37:09;4.20;1.00
38582;DHT22;24349;53.720;10.014;2023-11-22T13:39:35;4.30;1.00
38582;DHT22;24349;53.720;10.014;2023-11-22T13:42:01;4.30;1.00
38582;DHT22;24349;53.720;10.014;2023-11-22T13:44:27;4.20;1.00
38582;DHT22;24349;53.720;10.014;2023-11-22T13:46:52;4.20;1.00
38582;DHT22;24349;53.720;10.014;2023-11-22T13:49:18;4.30;1.00
38582;DHT22;24349;53.720;10.014;2023-11-22T13:51:43;4.20;1.00
38582;DHT22;24349;53.720;10.014;2023-11-22T13:54:09;4.20;1.00
38582;DHT22;24349;53.720;10.014;2023-11-22T13:56:36;4.20;1.00
38582;DHT22;24349;53.720;10.014;2023-11-22T13:59:02;4.10;1.00
38582;DHT22;24349;53.720;10.014;2023-11-22T14:01:28;4.10;1.00
38582;DHT22;24349;53.720;10.014;2023-11-22T14:03:54;4.10;1.00
38582;DHT22;24349;53.720;10.014;2023-11-22T14:06:20;4.10;1.00
38582;DHT22;24349;53.720;10.014;2023-11-22T14:08:46;4.00;1.00
38582;DHT22;24349;53.720;10.014;2023-11-22T14:11:11;4.00;1.00
38582;DHT22;24349;53.720;10.014;2023-11-22T14:13:38;4.00;1.00
38582;DHT22;24349;53.720;10.014;2023-11-22T14:16:05;4.00;1.00
38582;DHT22;24349;53.720;10.014;2023-11-22T14:18:31;3.90;1.00
38582;DHT22;24349;53.720;10.014;2023-11-22T14:20:57;3.90;1.00
38582;DHT22;24349;53.720;10.014;2023-11-22T14:23:23;3.90;1.00
38582;DHT22;24349;53.720;10.014;2023-11-22T14:25:48;3.90;1.00
38582;DHT22;24349;53.720;10.014;2023-11-22T14:28:14;3.90;1.00
38582;DHT22;24349;53.720;10.014;2023-11-22T14:30:39;3.90;1.00
38582;DHT22;24349;53.720;10.014;2023-11-22T14:33:06;3.80;1.00
38582;DHT22;24349;53.720;10.014;2023-11-22T14:35:33;3.80;1.00
38582;DHT22;24349;53.720;10.014;2023-11-22T14:38:00;3.80;1.00
38582;DHT22;24349;53.720;10.014;2023-11-22T14:40:27;3.80;1.00
38582;DHT22;24349;53.720;10.014;2023-11-22T14:42:52;3.70;1.00
38582;DHT22;24349;53.720;10.014;2023-11-22T14:45:18;3.70;1.00
38582;DHT22;24349;53.720;10.014;2023-11-22T14:47:47;3.70;1.00
38582;DHT22;24349;53.720;10.014;2023-11-22T14:50:13;3.60;1.00
38582;DHT22;24349;53.720;10.014;2023-11-22T14:52:41;3.70;1.00
38582;DHT22;24349;53.720;10.014;2023-11-22T14:55:07;3.70;1.00
38582;DHT22;24349;53.720;10.014;2023-11-22T14:57:34;3.70;1.00
38582;DHT22;24349;53.720;10.014;2023-11-22T15:00:01;3.60;1.00
38582;DHT22;24349;53.720;10.014;2023-11-22T15:02:28;3.60;1.00
38582;DHT22;24349;53.720;10.014;2023-11-22T15:04:53;3.70;1.00
38582;DHT22;24349;53.720;10.014;2023-11-22T15:07:19;3.70;1.00
38582;DHT22;24349;53.720;10.014;2023-11-22T15:09:45;3.70;1.00
38582;DHT22;24349;53.720;10.014;2023-11-22T15:12:11;3.70;1.00
38582;DHT22;24349;53.720;10.014;2023-11-22T15:14:37;3.80;1.00
38582;DHT22;24349;53.720;10.014;2023-11-22T15:17:02;3.70;1.00
38582;DHT22;24349;53.720;10.014;2023-11-22T15:19:30;3.70;1.00
38582;DHT22;24349;53.720;10.014;2023-11-22T15:21:56;3.70;1.00
38582;DHT22;24349;53.720;10.014;2023-11-22T15:24:22;3.70;1.00
38582;DHT22;24349;53.720;10.014;2023-11-22T15:26:47;3.70;1.00
38582;DHT22;24349;53.720;10.014;2023-11-22T15:29:13;3.70;1.00
38582;DHT22;24349;53.720;10.014;2023-11-22T15:31:41;3.60;1.00
38582;DHT22;24349;53.720;10.014;2023-11-22T15:34:07;3.70;1.00
38582;DHT22;24349;53.720;10.014;2023-11-22T15:36:33;3.60;1.00
38582;DHT22;24349;53.720;10.014;2023-11-22T15:38:59;3.70;1.00